Time;durP1;ratioP1;P1;durP2;ratioP2;P2;SDS_P1;SDS_P2;PMS_P1;PMS_P2;Temp;Humidity;BMP_temperature;BMP_pressure;BME280_temperature;BME280_humidity;BME280_pressure;Samples;Min_cycle;Max_cycle;Signal;HPM_P1;HPM_P2
2023/08/16 00:00:08;;;;;;;12.38;7.13;;;;;;;22.33;nan;61867.50;5031696;28;20175;-63
2023/08/16 00:02:34;;;;;;;9.70;6.68;;;;;;;22.26;nan;61885.00;5031704;28;20176;-64
2023/08/16 00:04:59;;;;;;;10.52;6.43;;;;;;;21.94;nan;61851.81;5031409;28;20176;-63
2023/08/16 00:07:25;;;;;;;11.20;7.25;;;;;;;22.16;nan;61842.41;5030168;28;20249;-63
2023/08/16 00:09:51;;;;;;;12.50;6.88;;;;;;;22.17;nan;61846.13;5031424;28;20248;-63
2023/08/16 00:12:16;;;;;;;14.38;7.00;;;;;;;22.03;nan;61867.81;5031525;28;20653;-64
2023/08/16 00:14:42;;;;;;;12.45;7.45;;;;;;;22.06;nan;61890.91;5031216;28;20202;-64
2023/08/16 00:17:07;;;;;;;11.80;7.05;;;;;;;22.25;nan;61884.41;5031411;28;20176;-64
2023/08/16 00:19:33;;;;;;;10.52;6.80;;;;;;;21.98;nan;61854.31;5032086;28;20163;-64
2023/08/16 00:21:58;;;;;;;12.23;7.00;;;;;;;22.02;nan;61863.50;5031488;28;20273;-64
2023/08/16 00:24:23;;;;;;;10.98;6.30;;;;;;;22.30;nan;61884.31;5031511;28;20585;-64
2023/08/16 00:26:49;;;;;;;11.35;6.85;;;;;;;22.43;nan;61893.88;5032087;28;20163;-64
2023/08/16 00:29:14;;;;;;;12.18;6.95;;;;;;;22.43;nan;61852.78;5031666;28;20210;-64
2023/08/16 00:31:40;;;;;;;12.27;6.57;;;;;;;22.17;nan;61879.97;5031617;28;20168;-64
2023/08/16 00:34:05;;;;;;;12.77;7.40;;;;;;;22.17;nan;61854.50;5031174;28;20163;-64
2023/08/16 00:36:31;;;;;;;10.73;7.18;;;;;;;;;;5031384;28;20560;-64
2023/08/16 00:38:56;;;;;;;12.15;7.28;;;;;;;22.40;nan;61896.25;5031309;28;20654;-64
2023/08/16 00:41:21;;;;;;;13.38;7.93;;;;;;;22.34;nan;62042.47;5030132;28;20203;-64
2023/08/16 00:43:47;;;;;;;13.07;7.65;;;;;;;22.00;nan;61817.00;5031336;28;20184;-63
2023/08/16 00:46:13;;;;;;;11.15;7.18;;;;;;;22.07;nan;61780.13;5031336;28;20528;-64
2023/08/16 00:48:42;;;;;;;11.88;7.25;;;;;;;21.90;nan;61777.00;5029471;28;20214;-64
2023/08/16 00:51:09;;;;;;;11.43;7.38;;;;;;;22.09;nan;61780.38;5030919;28;20573;-63
2023/08/16 00:53:37;;;;;;;13.05;7.55;;;;;;;21.86;nan;61799.06;5030966;28;20164;-63
2023/08/16 00:56:03;;;;;;;12.48;7.25;;;;;;;21.77;nan;61744.06;5030625;28;20222;-63
2023/08/16 00:58:29;;;;;;;11.73;7.28;;;;;;;22.07;nan;61759.88;5030618;28;20262;-63
2023/08/16 01:00:55;;;;;;;10.25;6.43;;;;;;;21.97;nan;61821.97;5030832;28;20199;-63
2023/08/16 01:03:20;;;;;;;12.15;7.35;;;;;;;22.19;nan;61817.19;5030669;28;20229;-64
2023/08/16 01:05:45;;;;;;;13.00;7.90;;;;;;;22.13;nan;61833.78;5029559;28;20183;-63
2023/08/16 01:08:11;;;;;;;10.32;6.90;;;;;;;22.02;nan;61817.22;5030817;28;20230;-64
2023/08/16 01:10:50;;;;;;;10.57;6.80;;;;;;;21.98;nan;61827.72;5030917;28;20167;-64
2023/08/16 01:13:25;;;;;;;12.40;7.38;;;;;;;21.98;nan;61849.13;5030788;28;20550;-64
2023/08/16 01:15:55;;;;;;;12.00;7.20;;;;;;;21.92;nan;61831.31;5032281;28;20163;-63
2023/08/16 01:18:23;;;;;;;11.15;7.30;;;;;;;21.82;nan;61830.94;5034444;28;20262;-64
2023/08/16 01:20:48;;;;;;;13.98;7.28;;;;;;;21.69;nan;61823.97;5033591;28;20248;-63
2023/08/16 01:23:30;;;;;;;11.93;6.88;;;;;;;21.71;nan;61833.47;5034254;28;20262;-63
2023/08/16 01:26:07;;;;;;;12.68;7.00;;;;;;;21.93;nan;61853.28;5034247;28;20163;-63
2023/08/16 01:28:35;;;;;;;9.77;6.90;;;;;;;22.06;nan;61818.03;5034479;28;20199;-64
2023/08/16 01:31:04;;;;;;;12.25;6.78;;;;;;;21.85;nan;61865.56;5034773;28;20252;-63
2023/08/16 01:33:29;;;;;;;14.90;7.75;;;;;;;22.03;nan;61857.41;5034286;28;20600;-63
2023/08/16 01:35:55;;;;;;;13.20;7.05;;;;;;;21.83;nan;61834.66;5034271;28;20179;-63
2023/08/16 01:38:21;;;;;;;11.85;7.03;;;;;;;21.85;nan;61825.97;5034324;28;20223;-64
2023/08/16 01:41:05;;;;;;;11.23;7.15;;;;;;;22.03;nan;61870.41;5034131;28;20179;-65
2023/08/16 01:43:31;;;;;;;13.85;7.43;;;;;;;21.90;nan;61829.03;5033584;28;20635;-64
2023/08/16 01:45:59;;;;;;;10.93;6.78;;;;;;;21.80;nan;61809.88;5034546;28;20246;-64
2023/08/16 01:48:25;;;;;;;11.50;7.00;;;;;;;21.72;nan;61827.38;5034045;28;20202;-64
2023/08/16 01:50:51;;;;;;;11.25;6.97;;;;;;;21.72;nan;61835.19;5034036;28;20171;-64
2023/08/16 01:53:18;;;;;;;12.25;7.22;;;;;;;21.99;nan;61870.50;5032493;28;20193;-63
2023/08/16 01:55:43;;;;;;;12.35;7.60;;;;;;;21.79;nan;61977.81;5034091;28;20224;-63
2023/08/16 01:58:09;;;;;;;11.15;7.43;;;;;;;21.97;nan;61876.03;5034076;28;20266;-62
2023/08/16 02:00:35;;;;;;;11.23;7.25;;;;;;;21.72;nan;61843.00;5033850;28;20167;-62
2023/08/16 02:03:01;;;;;;;11.10;7.10;;;;;;;21.87;nan;61823.03;5034032;28;20191;-63
2023/08/16 02:05:27;;;;;;;15.55;7.82;;;;;;;22.00;nan;61863.84;5033716;28;20193;-63
2023/08/16 02:07:52;;;;;;;10.57;7.10;;;;;;;21.80;nan;61838.50;5032457;28;20231;-64
2023/08/16 02:10:19;;;;;;;12.15;7.40;;;;;;;21.80;nan;61859.31;5033570;28;20756;-64
2023/08/16 02:12:44;;;;;;;13.95;7.60;;;;;;;22.15;nan;61888.13;5033476;28;20280;-63
2023/08/16 02:15:10;;;;;;;13.35;7.35;;;;;;;22.03;nan;61971.34;5033567;28;20258;-63
2023/08/16 02:17:35;;;;;;;13.80;7.50;;;;;;;22.17;nan;61892.97;5033546;28;20617;-65
2023/08/16 02:20:01;;;;;;;13.02;7.93;;;;;;;22.18;nan;61925.38;5033487;28;20254;-63
2023/08/16 02:22:26;;;;;;;11.80;7.53;;;;;;;22.01;nan;61880.59;5033234;28;20221;-64
2023/08/16 02:24:51;;;;;;;11.95;7.25;;;;;;;22.19;nan;61913.50;5033421;28;20229;-64
2023/08/16 02:27:17;;;;;;;13.73;7.57;;;;;;;22.15;nan;61935.53;5033813;28;20190;-63
2023/08/16 02:29:42;;;;;;;12.45;7.85;;;;;;;22.17;nan;61887.78;5033557;28;20203;-64
2023/08/16 02:32:08;;;;;;;12.85;7.47;;;;;;;22.20;nan;61889.16;5033422;28;20167;-64
2023/08/16 02:34:33;;;;;;;12.13;7.63;;;;;;;22.23;nan;61912.81;5033042;28;20693;-63
2023/08/16 02:36:59;;;;;;;13.02;7.55;;;;;;;21.80;nan;61852.06;5033275;28;20171;-64
2023/08/16 02:39:24;;;;;;;11.68;7.57;;;;;;;21.99;nan;61904.34;5033058;28;20168;-63
2023/08/16 02:41:52;;;;;;;14.88;8.43;;;;;;;22.22;nan;61893.47;5033121;28;20171;-63
2023/08/16 02:44:17;;;;;;;17.13;8.50;;;;;;;22.23;nan;61928.44;5031742;28;20261;-63
2023/08/16 02:46:43;;;;;;;11.52;7.22;;;;;;;22.02;nan;61892.13;5033254;28;20172;-64
2023/08/16 02:49:08;;;;;;;13.80;8.48;;;;;;;22.18;nan;61863.47;5033008;28;20202;-64
2023/08/16 02:51:33;;;;;;;14.63;8.10;;;;;;;22.01;nan;61901.97;5032842;28;20175;-65
2023/08/16 02:53:59;;;;;;;14.68;8.18;;;;;;;22.00;nan;61913.84;5032702;28;20634;-64
2023/08/16 02:56:24;;;;;;;13.77;8.50;;;;;;;22.37;nan;61910.50;5032759;28;20519;-64
2023/08/16 02:58:50;;;;;;;13.05;7.78;;;;;;;22.34;nan;61899.84;5031464;28;20179;-64
2023/08/16 03:01:15;;;;;;;15.07;8.75;;;;;;;22.38;nan;61927.28;5029411;28;20279;-64
2023/08/16 03:03:42;;;;;;;12.50;8.23;;;;;;;22.32;nan;61925.66;5027247;28;20209;-64
2023/08/16 03:06:07;;;;;;;13.27;7.95;;;;;;;22.38;nan;61916.88;5032218;28;20209;-64
2023/08/16 03:08:33;;;;;;;11.32;7.05;;;;;;;22.30;nan;61912.97;5031983;28;20717;-64
2023/08/16 03:10:58;;;;;;;10.23;7.28;;;;;;;22.41;nan;61936.47;5031170;28;20583;-64
2023/08/16 03:13:24;;;;;;;12.10;7.88;;;;;;;22.45;nan;61984.72;5031578;28;20639;-64
2023/08/16 03:15:49;;;;;;;15.23;8.60;;;;;;;22.42;nan;61911.56;5032317;28;20182;-63
2023/08/16 03:18:14;;;;;;;13.18;8.23;;;;;;;22.22;nan;61893.47;5030567;28;20576;-64
2023/08/16 03:20:40;;;;;;;14.02;7.93;;;;;;;22.34;nan;61901.88;5032003;28;20554;-63
2023/08/16 03:23:05;;;;;;;13.48;7.72;;;;;;;22.11;nan;61901.78;5031667;28;20179;-64
2023/08/16 03:25:31;;;;;;;11.80;7.63;;;;;;;22.16;nan;61923.66;5031770;28;20768;-64
2023/08/16 03:27:56;;;;;;;13.98;7.55;;;;;;;22.32;nan;61908.00;5030473;28;20225;-64
2023/08/16 03:30:22;;;;;;;13.45;7.03;;;;;;;22.12;nan;61911.31;5030198;28;20690;-64
2023/08/16 03:32:47;;;;;;;14.13;8.50;;;;;;;22.11;nan;61857.53;5031109;28;20274;-64
2023/08/16 03:35:12;;;;;;;12.20;7.32;;;;;;;21.95;nan;61863.94;5030387;28;20207;-63
2023/08/16 03:37:38;;;;;;;11.60;7.38;;;;;;;22.35;nan;62052.00;5030267;28;20181;-64
2023/08/16 03:40:06;;;;;;;12.77;7.55;;;;;;;22.20;nan;61883.38;5030140;28;20565;-64
2023/08/16 03:42:31;;;;;;;13.63;7.68;;;;;;;22.56;nan;61952.94;5031886;28;20186;-63
2023/08/16 03:44:57;;;;;;;12.02;7.88;;;;;;;22.57;nan;61961.88;5030722;28;20199;-63
2023/08/16 03:47:22;;;;;;;12.07;7.88;;;;;;;22.59;nan;61984.44;5031470;28;20206;-64
2023/08/16 03:49:48;;;;;;;13.90;7.72;;;;;;;22.28;nan;61913.31;5031492;28;20203;-64
2023/08/16 03:52:13;;;;;;;12.25;7.53;;;;;;;22.47;nan;62122.41;5030308;28;20182;-64
2023/08/16 03:54:39;;;;;;;13.95;8.00;;;;;;;22.55;nan;61959.06;5030489;28;20258;-64
2023/08/16 03:57:04;;;;;;;12.95;7.63;;;;;;;22.43;nan;61941.31;5031541;28;20191;-64
2023/08/16 03:59:30;;;;;;;14.30;8.13;;;;;;;22.60;nan;61975.72;5031537;28;20175;-63
2023/08/16 04:01:56;;;;;;;14.32;8.70;;;;;;;22.63;nan;61973.94;5031730;28;20183;-63
2023/08/16 04:04:21;;;;;;;13.18;7.97;;;;;;;22.63;nan;61953.09;5031321;28;20170;-64
2023/08/16 04:06:47;;;;;;;13.10;7.90;;;;;;;22.47;nan;61961.50;5031550;28;20258;-64
2023/08/16 04:09:13;;;;;;;12.60;8.07;;;;;;;22.76;nan;62004.38;5031599;28;20266;-64
2023/08/16 04:11:39;;;;;;;14.55;7.72;;;;;;;22.80;nan;61997.91;5031409;28;20188;-64
2023/08/16 04:14:05;;;;;;;11.90;7.90;;;;;;;22.80;nan;61951.00;5031715;28;20190;-64
2023/08/16 04:16:30;;;;;;;12.40;7.93;;;;;;;22.87;nan;62045.56;5031981;28;20254;-64
2023/08/16 04:18:56;;;;;;;11.02;7.40;;;;;;;22.79;nan;62002.56;5031517;28;20179;-63
2023/08/16 04:21:22;;;;;;;13.32;7.63;;;;;;;22.88;nan;61934.06;5031095;28;20167;-64
2023/08/16 04:23:47;;;;;;;14.98;8.35;;;;;;;22.68;nan;61958.78;5029701;28;20270;-65
2023/08/16 04:26:12;;;;;;;13.52;8.05;;;;;;;22.88;nan;61994.00;5031283;28;20187;-63
2023/08/16 04:28:38;;;;;;;15.70;8.23;;;;;;;22.96;nan;61979.06;5030073;28;20238;-66
2023/08/16 04:31:06;;;;;;;14.75;8.57;;;;;;;23.04;nan;62071.56;5030923;28;20163;-65
2023/08/16 04:33:32;;;;;;;13.15;7.88;;;;;;;22.92;nan;62029.25;5030741;28;20187;-63
2023/08/16 04:35:57;;;;;;;16.27;8.38;;;;;;;23.28;nan;62031.13;5030807;28;20172;-63
2023/08/16 04:38:22;;;;;;;10.52;7.28;;;;;;;23.27;nan;62134.28;5030911;28;20616;-63
2023/08/16 04:40:51;;;;;;;13.85;8.38;;;;;;;23.11;nan;62056.09;5030260;28;20696;-65
2023/08/16 04:43:18;;;;;;;15.60;7.70;;;;;;;23.36;nan;62063.69;5030894;28;20250;-64
2023/08/16 04:45:44;;;;;;;14.98;8.50;;;;;;;23.33;nan;62126.03;5030834;28;20202;-65
2023/08/16 04:48:09;;;;;;;12.88;7.60;;;;;;;23.29;nan;62102.66;5030848;28;20563;-64
2023/08/16 04:50:35;;;;;;;11.48;7.88;;;;;;;23.24;nan;62107.41;5030480;28;20183;-67
2023/08/16 04:53:00;;;;;;;12.38;7.65;;;;;;;23.38;nan;62084.22;5032794;28;20270;-66
2023/08/16 04:55:26;;;;;;;13.55;8.00;;;;;;;23.23;nan;62078.16;5033176;28;20659;-65
2023/08/16 04:57:51;;;;;;;12.15;7.78;;;;;;;23.44;nan;62111.97;5031870;28;20179;-64
2023/08/16 05:00:19;;;;;;;12.25;7.97;;;;;;;23.30;nan;62129.88;5031340;28;20187;-66
2023/08/16 05:02:44;;;;;;;12.25;7.40;;;;;;;23.36;nan;62100.19;5033075;28;20205;-66
2023/08/16 05:05:10;;;;;;;10.95;7.57;;;;;;;23.46;nan;62095.97;5030732;28;20564;-65
2023/08/16 05:07:35;;;;;;;12.20;7.20;;;;;;;23.62;nan;62121.44;5032727;28;20215;-66
2023/08/16 05:10:01;;;;;;;11.52;7.55;;;;;;;23.46;nan;62113.66;5028032;28;20631;-65
2023/08/16 05:12:26;;;;;;;11.18;7.35;;;;;;;23.72;nan;62164.72;5032417;28;20183;-64
2023/08/16 05:14:51;;;;;;;12.27;7.53;;;;;;;23.73;nan;62152.81;5034875;28;20267;-63
2023/08/16 05:17:17;;;;;;;11.52;7.13;;;;;;;23.63;nan;62106.94;5033397;28;20191;-63
2023/08/16 05:19:42;;;;;;;12.00;7.63;;;;;;;23.77;nan;62154.75;5032355;28;20185;-64
2023/08/16 05:22:08;;;;;;;12.02;7.68;;;;;;;23.80;nan;62180.53;5029838;28;20274;-65
2023/08/16 05:24:33;;;;;;;11.55;7.65;;;;;;;23.79;nan;62132.97;5033429;28;20666;-65
2023/08/16 05:26:59;;;;;;;13.05;7.45;;;;;;;23.56;nan;62140.69;5033444;28;20266;-64
2023/08/16 05:29:24;;;;;;;10.98;7.13;;;;;;;23.82;nan;62154.66;5032940;28;20246;-65
2023/08/16 05:31:50;;;;;;;10.10;7.15;;;;;;;23.80;nan;62154.44;5032037;28;20179;-64
2023/08/16 05:34:16;;;;;;;10.65;6.82;;;;;;;23.68;nan;62318.75;5032023;28;20213;-64
2023/08/16 05:36:47;;;;;;;11.80;7.13;;;;;;;23.74;nan;62177.44;5032122;28;20183;-64
2023/08/16 05:39:13;;;;;;;11.25;7.50;;;;;;;23.86;nan;62153.44;5029494;28;20175;-65
2023/08/16 05:41:38;;;;;;;11.00;7.03;;;;;;;24.10;nan;62238.22;5032683;28;20179;-65
2023/08/16 05:44:04;;;;;;;11.02;7.35;;;;;;;23.97;nan;62218.19;5032321;28;20681;-66
2023/08/16 05:46:29;;;;;;;13.35;7.90;;;;;;;24.14;nan;62232.34;5031064;28;20643;-65
2023/08/16 05:48:55;;;;;;;11.15;6.82;;;;;;;24.08;nan;62222.91;5032738;28;20210;-65
2023/08/16 05:51:20;;;;;;;10.70;6.88;;;;;;;24.35;nan;62258.38;5027034;28;20647;-65
2023/08/16 05:53:46;;;;;;;14.85;7.53;;;;;;;24.43;nan;62286.38;5030092;28;20229;-65
2023/08/16 05:56:12;;;;;;;11.43;7.05;;;;;;;24.25;nan;62244.91;5031575;28;20183;-64
2023/08/16 05:58:37;;;;;;;10.02;6.90;;;;;;;24.40;nan;62251.59;5030891;28;20187;-64
2023/08/16 06:01:02;;;;;;;10.68;6.95;;;;;;;24.00;nan;62190.28;5031585;28;20296;-64
2023/08/16 06:03:28;;;;;;;11.02;6.57;;;;;;;24.87;nan;62330.25;5032483;28;20716;-64
2023/08/16 06:05:53;;;;;;;9.95;6.63;;;;;;;24.77;nan;62358.59;5032994;28;20179;-64
2023/08/16 06:08:19;;;;;;;12.82;6.35;;;;;;;25.12;nan;62382.31;5032778;28;20293;-64
2023/08/16 06:10:44;;;;;;;10.35;6.90;;;;;;;25.31;nan;62393.00;5032835;28;20650;-64
2023/08/16 06:13:09;;;;;;;11.57;7.32;;;;;;;25.24;nan;62393.44;5032934;28;20229;-63
2023/08/16 06:15:35;;;;;;;12.18;6.97;;;;;;;25.61;nan;62610.00;5032888;28;20179;-63
2023/08/16 06:18:00;;;;;;;11.00;6.60;;;;;;;25.74;nan;62491.34;5032401;28;20187;-63
2023/08/16 06:20:26;;;;;;;9.80;6.60;;;;;;;25.94;nan;62477.56;5032841;28;20171;-64
2023/08/16 06:22:51;;;;;;;13.18;6.78;;;;;;;25.96;nan;62500.78;5032848;28;20255;-64
2023/08/16 06:25:17;;;;;;;12.23;6.35;;;;;;;26.24;nan;62545.97;5032939;28;20176;-63
2023/08/16 06:27:42;;;;;;;14.18;6.35;;;;;;;26.55;nan;62743.41;5032560;28;20179;-64
2023/08/16 06:30:08;;;;;;;14.13;6.72;;;;;;;26.63;nan;62602.56;5032646;28;20164;-64
2023/08/16 06:32:34;;;;;;;10.77;6.70;;;;;;;26.76;nan;62639.00;5032422;28;20175;-63
2023/08/16 06:35:00;;;;;;;12.50;6.70;;;;;;;27.06;nan;62654.47;5032706;28;20174;-64
2023/08/16 06:37:25;;;;;;;10.63;6.40;;;;;;;27.17;nan;62667.06;5032478;28;20171;-65
2023/08/16 06:39:50;;;;;;;11.15;6.20;;;;;;;27.15;nan;62670.00;5030885;28;20180;-65
2023/08/16 06:42:17;;;;;;;9.90;6.40;;;;;;;27.17;nan;62701.19;5032739;28;20164;-64
2023/08/16 06:44:42;;;;;;;8.88;6.38;;;;;;;27.24;nan;62656.72;5032565;28;20342;-64
2023/08/16 06:47:08;;;;;;;12.82;6.38;;;;;;;27.65;nan;62826.03;5032443;28;20329;-65
2023/08/16 06:49:33;;;;;;;8.80;6.40;;;;;;;27.50;nan;62861.88;5019701;28;20739;-64
2023/08/16 06:51:59;;;;;;;9.55;6.22;;;;;;;27.46;nan;62749.03;5030368;28;20190;-64
2023/08/16 06:54:24;;;;;;;8.57;6.20;;;;;;;27.83;nan;62788.91;5027962;28;20178;-64
2023/08/16 06:56:50;;;;;;;9.02;5.95;;;;;;;27.93;nan;62810.31;5030020;28;20178;-64
2023/08/16 06:59:15;;;;;;;9.63;6.55;;;;;;;28.26;nan;62837.09;5030481;28;20182;-64
2023/08/16 07:01:41;;;;;;;9.98;6.57;;;;;;;28.46;nan;62973.72;5026271;28;20176;-64
2023/08/16 07:04:07;;;;;;;11.70;6.90;;;;;;;28.85;nan;62891.72;5027718;28;20182;-64
2023/08/16 07:06:33;;;;;;;11.38;6.40;;;;;;;28.84;nan;62937.94;5030501;28;20248;-64
2023/08/16 07:08:58;;;;;;;10.38;6.63;;;;;;;28.73;nan;62904.25;5025906;28;20807;-64
2023/08/16 07:11:25;;;;;;;9.45;6.20;;;;;;;28.92;nan;62910.28;5029109;28;20650;-63
2023/08/16 07:13:51;;;;;;;10.05;5.95;;;;;;;28.94;nan;62933.06;5029054;28;20174;-65
2023/08/16 07:16:17;;;;;;;10.93;6.45;;;;;;;28.76;nan;62928.72;5026097;28;20178;-64
2023/08/16 07:18:43;;;;;;;10.88;6.63;;;;;;;28.88;nan;62923.53;5028833;28;20194;-65
2023/08/16 07:21:10;;;;;;;9.13;5.93;;;;;;;29.03;nan;62987.59;5029262;28;20233;-64
2023/08/16 07:23:36;;;;;;;9.60;6.28;;;;;;;29.27;nan;63131.06;5027292;28;20591;-64
2023/08/16 07:26:02;;;;;;;9.63;6.10;;;;;;;29.45;nan;62993.75;5025723;28;20178;-65
2023/08/16 07:28:28;;;;;;;7.97;5.78;;;;;;;29.49;nan;63029.41;5027408;28;20758;-64
2023/08/16 07:30:54;;;;;;;9.90;6.22;;;;;;;29.72;nan;63061.69;5031142;28;20187;-65
2023/08/16 07:33:21;;;;;;;12.00;6.40;;;;;;;29.78;nan;63121.31;5030648;28;20199;-65
2023/08/16 07:35:49;;;;;;;9.32;6.32;;;;;;;29.80;nan;63041.91;5030386;28;20183;-64
2023/08/16 07:38:15;;;;;;;11.13;6.03;;;;;;;30.15;nan;63154.91;5029930;28;20183;-64
2023/08/16 07:40:47;;;;;;;8.95;5.85;;;;;;;30.25;nan;63272.50;5030507;28;20198;-65
2023/08/16 07:43:13;;;;;;;8.95;6.13;;;;;;;30.12;nan;63151.44;5031567;28;20221;-65
2023/08/16 07:45:38;;;;;;;9.35;6.63;;;;;;;30.32;nan;63156.00;5030041;28;20278;-65
2023/08/16 07:48:04;;;;;;;9.60;6.50;;;;;;;30.41;nan;63115.66;5030455;28;20244;-64
2023/08/16 07:50:29;;;;;;;9.43;6.30;;;;;;;30.33;nan;63149.25;5030563;28;20182;-64
2023/08/16 07:52:55;;;;;;;9.65;6.50;;;;;;;30.03;nan;63104.16;5030078;28;20182;-65
2023/08/16 07:55:22;;;;;;;9.52;6.00;;;;;;;29.92;nan;63196.94;5031356;28;20221;-65
2023/08/16 07:57:48;;;;;;;8.20;5.57;;;;;;;30.18;nan;63121.41;5030559;28;20530;-66
2023/08/16 08:00:14;;;;;;;11.13;6.53;;;;;;;30.10;nan;63130.69;5030429;28;20186;-64
2023/08/16 08:02:40;;;;;;;9.73;6.15;;;;;;;30.52;nan;63149.47;5031028;28;20179;-65
2023/08/16 08:05:06;;;;;;;9.88;5.90;;;;;;;30.48;nan;63219.31;5030444;28;20676;-64
2023/08/16 08:07:32;;;;;;;8.27;5.97;;;;;;;30.73;nan;63236.41;5029071;28;20636;-65
2023/08/16 08:09:57;;;;;;;8.50;5.80;;;;;;;30.61;nan;63344.56;5029469;28;20830;-65
2023/08/16 08:12:23;;;;;;;12.57;6.05;;;;;;;30.54;nan;63146.47;5028617;28;20175;-65
2023/08/16 08:14:49;;;;;;;10.00;6.28;;;;;;;30.29;nan;63176.84;5029462;28;20739;-65
2023/08/16 08:17:15;;;;;;;9.45;6.25;;;;;;;30.61;nan;63170.38;5029183;28;20179;-64
2023/08/16 08:19:41;;;;;;;10.13;5.55;;;;;;;30.75;nan;63197.06;5028602;28;20268;-65
2023/08/16 08:22:06;;;;;;;8.20;5.78;;;;;;;30.73;nan;63262.81;5028585;28;20202;-65
2023/08/16 08:24:32;;;;;;;7.85;5.68;;;;;;;30.99;nan;63216.78;5030237;28;20175;-65
2023/08/16 08:26:57;;;;;;;10.02;6.60;;;;;;;31.10;nan;63355.69;5033514;28;20646;-65
2023/08/16 08:29:26;;;;;;;8.18;5.53;;;;;;;31.05;nan;63295.03;5033156;28;20194;-65
2023/08/16 08:31:53;;;;;;;8.20;5.72;;;;;;;31.24;nan;63311.09;5032517;28;20167;-65
2023/08/16 08:34:19;;;;;;;8.13;6.07;;;;;;;31.03;nan;63257.81;5033460;28;20210;-65
2023/08/16 08:36:44;;;;;;;10.60;6.72;;;;;;;31.25;nan;63332.81;5032682;28;20206;-65
2023/08/16 08:39:10;;;;;;;8.93;5.82;;;;;;;31.47;nan;63327.06;5033693;28;20179;-65
2023/08/16 08:41:37;;;;;;;8.13;5.68;;;;;;;31.40;nan;63295.19;5032646;28;20202;-65
2023/08/16 08:44:04;;;;;;;9.80;5.50;;;;;;;31.54;nan;63334.56;5032971;28;20177;-66
2023/08/16 08:46:30;;;;;;;10.23;5.88;;;;;;;31.47;nan;63352.91;5033154;28;20269;-66
2023/08/16 08:49:00;;;;;;;12.80;5.78;;;;;;;31.70;nan;63381.53;5033293;28;20202;-65
2023/08/16 08:51:29;;;;;;;7.38;5.55;;;;;;;31.85;nan;63353.91;5033087;28;20229;-66
2023/08/16 08:53:55;;;;;;;9.07;6.00;;;;;;;31.83;nan;63426.22;5032474;28;20245;-65
2023/08/16 08:56:21;;;;;;;8.98;5.45;;;;;;;31.96;nan;63430.66;5029501;28;20270;-65
2023/08/16 08:58:47;;;;;;;8.55;5.90;;;;;;;31.86;nan;63413.81;5033287;28;20652;-65
2023/08/16 09:01:14;;;;;;;7.65;5.53;;;;;;;31.68;nan;63331.63;5033170;28;20329;-64
2023/08/16 09:03:43;;;;;;;11.20;5.85;;;;;;;31.68;nan;63342.22;5031963;28;20285;-64
2023/08/16 09:06:09;;;;;;;8.13;5.50;;;;;;;31.78;nan;63390.78;5031720;28;20216;-64
2023/08/16 09:08:36;;;;;;;7.82;5.60;;;;;;;31.36;nan;63295.88;5032008;28;20230;-65
2023/08/16 09:11:03;;;;;;;7.88;5.47;;;;;;;31.31;nan;63350.88;5032813;28;20336;-65
2023/08/16 09:13:30;;;;;;;7.53;5.75;;;;;;;31.37;nan;63320.81;5031557;28;20269;-63
2023/08/16 09:15:55;;;;;;;11.73;5.50;;;;;;;31.08;nan;63260.94;5030742;28;20664;-64
2023/08/16 09:18:22;;;;;;;8.45;5.93;;;;;;;30.55;nan;63206.28;5031451;28;20691;-63
2023/08/16 09:20:49;;;;;;;9.30;5.72;;;;;;;30.78;nan;63268.59;5031718;28;20198;-64
2023/08/16 09:23:17;;;;;;;8.65;5.65;;;;;;;31.07;nan;63299.41;5031873;28;20186;-62
2023/08/16 09:25:44;;;;;;;11.30;6.13;;;;;;;31.22;nan;63306.13;5031504;28;20206;-64
2023/08/16 09:28:11;;;;;;;8.70;5.95;;;;;;;31.21;nan;63328.78;5032004;28;20225;-64
2023/08/16 09:30:37;;;;;;;7.30;5.13;;;;;;;31.34;nan;63388.13;5033070;28;20187;-71
2023/08/16 09:33:03;;;;;;;11.20;6.65;;;;;;;31.23;nan;63320.50;5030274;28;20275;-64
2023/08/16 09:35:43;;;;;;;15.68;7.15;;;;;;;30.83;nan;63240.03;5031512;28;20205;-64
2023/08/16 09:38:09;;;;;;;9.32;6.18;;;;;;;30.80;nan;63239.78;5029424;28;20243;-64
2023/08/16 09:40:35;;;;;;;15.07;7.72;;;;;;;30.91;nan;63247.19;5031734;28;20258;-65
2023/08/16 09:43:01;;;;;;;12.13;7.25;;;;;;;30.29;nan;63142.00;5032122;28;20183;-64
2023/08/16 09:45:34;;;;;;;7.85;5.43;;;;;;;30.35;nan;63146.25;5031156;28;20268;-64
2023/08/16 09:48:00;;;;;;;10.57;6.20;;;;;;;30.14;nan;63204.44;5030564;28;20677;-64
2023/08/16 09:50:32;;;;;;;9.73;6.32;;;;;;;30.09;nan;63082.06;5031724;28;20189;-64
2023/08/16 09:52:58;;;;;;;12.00;6.90;;;;;;;30.13;nan;63118.88;5031415;28;20187;-65
2023/08/16 09:55:29;;;;;;;11.07;6.97;;;;;;;30.10;nan;63112.22;5028714;28;20275;-64
2023/08/16 09:57:58;;;;;;;10.48;6.10;;;;;;;29.85;nan;63063.47;5032223;28;20187;-65
2023/08/16 10:00:27;;;;;;;9.98;5.72;;;;;;;30.05;nan;63127.56;5028505;28;20179;-65
2023/08/16 10:02:53;;;;;;;9.77;6.10;;;;;;;30.57;nan;63195.38;5031533;28;20190;-65
2023/08/16 10:05:18;;;;;;;12.73;6.43;;;;;;;31.28;nan;63289.28;5031882;28;20187;-65
2023/08/16 10:07:47;;;;;;;9.25;6.22;;;;;;;31.61;nan;63344.72;5032415;28;20314;-65
2023/08/16 10:10:15;;;;;;;9.88;6.00;;;;;;;32.13;nan;63455.03;5032464;28;20185;-66
2023/08/16 10:12:41;;;;;;;13.25;5.80;;;;;;;32.33;nan;63573.41;5031175;28;20265;-65
2023/08/16 10:15:07;;;;;;;8.88;5.70;;;;;;;32.43;nan;63491.75;5032086;28;20181;-65
2023/08/16 10:17:38;;;;;;;8.93;6.43;;;;;;;32.74;nan;63545.59;5031387;28;20237;-65
2023/08/16 10:20:07;;;;;;;8.52;6.50;;;;;;;33.14;nan;63618.34;5031568;28;20213;-65
2023/08/16 10:22:38;;;;;;;9.60;6.22;;;;;;;32.82;nan;63639.59;5031447;28;20191;-65
2023/08/16 10:25:13;;;;;;;8.23;5.78;;;;;;;32.81;nan;63574.88;5030931;28;20218;-65
2023/08/16 10:27:43;;;;;;;8.60;5.72;;;;;;;32.67;nan;63532.19;5031398;28;20656;-65
2023/08/16 10:30:15;;;;;;;8.32;6.00;;;;;;;32.78;nan;63576.69;5031801;28;20193;-65
2023/08/16 10:32:44;;;;;;;7.72;5.50;;;;;;;33.04;nan;63540.53;5030739;28;20254;-64
2023/08/16 10:35:10;;;;;;;9.05;5.93;;;;;;;33.06;nan;63582.03;5031340;28;20572;-64
2023/08/16 10:37:37;;;;;;;9.55;6.10;;;;;;;33.01;nan;63635.09;5031134;28;20638;-64
2023/08/16 10:40:03;;;;;;;10.95;6.07;;;;;;;33.06;nan;63614.41;5030989;28;20213;-65
2023/08/16 10:42:29;;;;;;;10.40;6.32;;;;;;;33.15;nan;63744.09;5031481;28;20170;-65
2023/08/16 10:44:55;;;;;;;9.13;5.75;;;;;;;33.33;nan;63676.31;5032760;28;20215;-66
2023/08/16 10:47:30;;;;;;;8.65;6.03;;;;;;;33.46;nan;63680.75;5031296;28;20182;-65
2023/08/16 10:49:56;;;;;;;9.15;6.40;;;;;;;33.53;nan;63704.78;5030696;28;20601;-64
2023/08/16 10:52:28;;;;;;;12.02;6.38;;;;;;;33.39;nan;63665.28;5030901;28;20664;-64
2023/08/16 10:54:54;;;;;;;8.20;5.70;;;;;;;33.27;nan;63678.47;5030473;28;20261;-65
2023/08/16 10:57:27;;;;;;;9.43;5.85;;;;;;;33.47;nan;63620.94;5030485;28;20328;-65
2023/08/16 11:00:03;;;;;;;9.55;6.00;;;;;;;33.70;nan;63740.41;5030703;28;20182;-64
2023/08/16 11:02:34;;;;;;;7.82;5.28;;;;;;;32.95;nan;63633.44;5027515;28;20277;-66
2023/08/16 11:05:00;;;;;;;9.68;5.90;;;;;;;32.55;nan;63550.66;5030950;28;20175;-65
2023/08/16 11:07:28;;;;;;;10.15;6.10;;;;;;;32.32;nan;63418.19;5030716;28;20602;-65
2023/08/16 11:09:59;;;;;;;8.63;5.82;;;;;;;31.86;nan;63389.44;5031092;28;20669;-65
2023/08/16 11:12:34;;;;;;;11.98;6.25;;;;;;;31.75;nan;63393.19;5030444;28;20277;-65
2023/08/16 11:15:00;;;;;;;8.65;5.68;;;;;;;32.24;nan;63456.56;5031508;28;20247;-65
2023/08/16 11:17:26;;;;;;;7.47;5.85;;;;;;;32.77;nan;63596.72;5031097;28;20328;-64
2023/08/16 11:19:53;;;;;;;7.90;5.78;;;;;;;33.05;nan;63612.66;5030063;28;21312;-65
2023/08/16 11:22:20;;;;;;;9.00;5.55;;;;;;;32.88;nan;63696.31;5030899;28;20182;-65
2023/08/16 11:24:47;;;;;;;8.38;6.15;;;;;;;33.21;nan;63604.69;5030204;28;20179;-65
2023/08/16 11:27:15;;;;;;;7.82;5.63;;;;;;;33.43;nan;63672.00;5027634;28;20289;-65
2023/08/16 11:29:48;;;;;;;7.90;5.60;;;;;;;33.42;nan;63665.53;5028900;28;20645;-64
2023/08/16 11:32:13;;;;;;;8.43;6.00;;;;;;;33.74;nan;63692.00;5028491;28;20185;-65
2023/08/16 11:34:39;;;;;;;8.48;5.90;;;;;;;33.70;nan;63719.19;5030183;28;20187;-66
2023/08/16 11:37:06;;;;;;;8.80;5.47;;;;;;;33.49;nan;63763.78;5031017;28;20186;-69
2023/08/16 11:39:32;;;;;;;8.13;5.57;;;;;;;33.77;nan;63751.19;5030101;28;20257;-65